sensor_id;sensor_type;location;lat;lon;timestamp;pressure;altitude;pressure_sealevel;temperature;humidity
22657;BME280;11495;55.610;12.100;2022-08-30T00:00:39;102407.53;;;14.19;0.00
22657;BME280;11495;55.610;12.100;2022-08-30T00:03:22;102418.03;;;14.17;0.00
22657;BME280;11495;55.610;12.100;2022-08-30T00:05:49;102434.03;;;14.15;0.00
22657;BME280;11495;55.610;12.100;2022-08-30T00:08:15;102440.94;;;14.12;0.00
22657;BME280;11495;55.610;12.100;2022-08-30T00:10:50;102445.62;;;14.12;0.00
22657;BME280;11495;55.610;12.100;2022-08-30T00:13:17;102464.44;;;14.10;0.00
22657;BME280;11495;55.610;12.100;2022-08-30T00:15:43;102464.91;;;14.06;0.00
22657;BME280;11495;55.610;12.100;2022-08-30T00:18:09;102467.94;;;14.05;0.00
22657;BME280;11495;55.610;12.100;2022-08-30T00:20:42;102470.41;;;14.01;0.00
22657;BME280;11495;55.610;12.100;2022-08-30T00:23:08;102464.88;;;14.01;0.00
22657;BME280;11495;55.610;12.100;2022-08-30T00:25:33;102464.53;;;13.98;0.00
22657;BME280;11495;55.610;12.100;2022-08-30T00:27:59;102473.63;;;13.93;0.00
22657;BME280;11495;55.610;12.100;2022-08-30T00:30:24;102471.88;;;13.87;0.00
22657;BME280;11495;55.610;12.100;2022-08-30T00:32:51;102472.72;;;13.88;0.00
22657;BME280;11495;55.610;12.100;2022-08-30T00:35:18;102472.41;;;13.84;0.00
22657;BME280;11495;55.610;12.100;2022-08-30T00:37:45;102482.56;;;13.78;0.00
22657;BME280;11495;55.610;12.100;2022-08-30T00:40:11;102487.44;;;13.71;0.00
22657;BME280;11495;55.610;12.100;2022-08-30T00:42:40;102480.41;;;13.64;0.00
22657;BME280;11495;55.610;12.100;2022-08-30T00:47:35;102473.34;;;13.51;0.00
22657;BME280;11495;55.610;12.100;2022-08-30T00:50:01;102477.63;;;13.42;0.00
22657;BME280;11495;55.610;12.100;2022-08-30T00:52:27;102481.09;;;13.32;0.00
22657;BME280;11495;55.610;12.100;2022-08-30T00:54:52;102468.28;;;13.26;0.00
22657;BME280;11495;55.610;12.100;2022-08-30T00:57:18;102458.94;;;13.15;0.00
22657;BME280;11495;55.610;12.100;2022-08-30T00:59:46;102456.28;;;13.04;0.00
22657;BME280;11495;55.610;12.100;2022-08-30T01:02:13;102446.22;;;12.98;0.00
22657;BME280;11495;55.610;12.100;2022-08-30T01:04:39;102444.72;;;12.90;0.00
22657;BME280;11495;55.610;12.100;2022-08-30T01:07:07;102448.72;;;12.82;0.00
22657;BME280;11495;55.610;12.100;2022-08-30T01:09:33;102441.47;;;12.76;0.00
22657;BME280;11495;55.610;12.100;2022-08-30T01:11:59;102435.00;;;12.71;0.00
22657;BME280;11495;55.610;12.100;2022-08-30T01:14:26;102417.28;;;12.67;0.00
22657;BME280;11495;55.610;12.100;2022-08-30T01:16:54;102404.75;;;12.59;0.00
22657;BME280;11495;55.610;12.100;2022-08-30T01:19:41;102399.97;;;12.54;0.00
22657;BME280;11495;55.610;12.100;2022-08-30T01:22:38;102391.25;;;12.46;0.00
22657;BME280;11495;55.610;12.100;2022-08-30T01:25:07;102382.81;;;12.35;0.00
22657;BME280;11495;55.610;12.100;2022-08-30T01:27:42;102369.16;;;12.29;0.00
22657;BME280;11495;55.610;12.100;2022-08-30T01:30:10;102363.53;;;12.24;0.00
22657;BME280;11495;55.610;12.100;2022-08-30T01:32:43;102358.53;;;12.21;0.00
22657;BME280;11495;55.610;12.100;2022-08-30T01:35:12;102354.69;;;12.22;0.00
22657;BME280;11495;55.610;12.100;2022-08-30T01:37:38;102348.84;;;12.18;0.00
22657;BME280;11495;55.610;12.100;2022-08-30T01:40:04;102342.50;;;12.18;0.00
22657;BME280;11495;55.610;12.100;2022-08-30T01:42:32;102340.47;;;12.13;0.00
22657;BME280;11495;55.610;12.100;2022-08-30T01:44:57;102345.66;;;12.09;0.00
22657;BME280;11495;55.610;12.100;2022-08-30T01:47:22;102343.97;;;12.08;0.00
22657;BME280;11495;55.610;12.100;2022-08-30T01:49:48;102340.53;;;12.01;0.00
22657;BME280;11495;55.610;12.100;2022-08-30T01:52:16;102344.28;;;11.95;0.00
22657;BME280;11495;55.610;12.100;2022-08-30T01:54:46;102337.94;;;11.95;0.00
22657;BME280;11495;55.610;12.100;2022-08-30T01:57:15;102333.12;;;11.90;0.00
22657;BME280;11495;55.610;12.100;2022-08-30T01:59:42;102331.84;;;11.93;0.00
22657;BME280;11495;55.610;12.100;2022-08-30T02:02:22;102326.22;;;11.88;0.00
22657;BME280;11495;55.610;12.100;2022-08-30T02:04:55;102316.53;;;11.85;0.00
22657;BME280;11495;55.610;12.100;2022-08-30T02:07:21;102314.25;;;11.82;0.00
22657;BME280;11495;55.610;12.100;2022-08-30T02:09:49;102297.94;;;11.80;0.00
22657;BME280;11495;55.610;12.100;2022-08-30T02:12:16;102296.91;;;11.70;0.00
22657;BME280;11495;55.610;12.100;2022-08-30T02:14:41;102302.22;;;11.60;0.00
22657;BME280;11495;55.610;12.100;2022-08-30T02:17:08;102297.28;;;11.62;0.00
22657;BME280;11495;55.610;12.100;2022-08-30T02:19:35;102295.53;;;11.56;0.00
22657;BME280;11495;55.610;12.100;2022-08-30T02:22:00;102291.81;;;11.50;0.00
22657;BME280;11495;55.610;12.100;2022-08-30T02:24:26;102288.16;;;11.44;0.00
22657;BME280;11495;55.610;12.100;2022-08-30T02:26:52;102280.97;;;11.43;0.00
22657;BME280;11495;55.610;12.100;2022-08-30T02:29:19;102273.16;;;11.40;0.00
22657;BME280;11495;55.610;12.100;2022-08-30T02:31:45;102272.09;;;11.41;0.00
22657;BME280;11495;55.610;12.100;2022-08-30T02:34:11;102260.47;;;11.39;0.00
22657;BME280;11495;55.610;12.100;2022-08-30T02:36:39;102253.81;;;11.35;0.00
22657;BME280;11495;55.610;12.100;2022-08-30T02:39:08;102252.72;;;11.36;0.00
22657;BME280;11495;55.610;12.100;2022-08-30T02:41:34;102239.66;;;11.32;0.00
22657;BME280;11495;55.610;12.100;2022-08-30T02:44:00;102236.34;;;11.30;0.00
22657;BME280;11495;55.610;12.100;2022-08-30T02:46:26;102236.13;;;11.19;0.00
22657;BME280;11495;55.610;12.100;2022-08-30T02:48:51;102238.91;;;11.08;0.00
22657;BME280;11495;55.610;12.100;2022-08-30T02:51:17;102233.91;;;11.05;0.00
22657;BME280;11495;55.610;12.100;2022-08-30T02:53:43;102231.88;;;11.00;0.00
22657;BME280;11495;55.610;12.100;2022-08-30T02:56:10;102232.50;;;10.90;0.00
22657;BME280;11495;55.610;12.100;2022-08-30T02:58:36;102221.47;;;10.90;0.00
22657;BME280;11495;55.610;12.100;2022-08-30T03:01:03;102218.72;;;10.90;0.00
22657;BME280;11495;55.610;12.100;2022-08-30T03:03:30;102214.44;;;10.83;0.00
22657;BME280;11495;55.610;12.100;2022-08-30T03:08:42;102204.00;;;10.96;0.00
22657;BME280;11495;55.610;12.100;2022-08-30T03:11:08;102194.19;;;11.01;0.00
22657;BME280;11495;55.610;12.100;2022-08-30T03:13:34;102186.16;;;10.99;0.00
22657;BME280;11495;55.610;12.100;2022-08-30T03:15:59;102181.28;;;10.89;0.00
22657;BME280;11495;55.610;12.100;2022-08-30T03:18:35;102179.59;;;10.88;0.00
22657;BME280;11495;55.610;12.100;2022-08-30T03:21:02;102173.78;;;10.85;0.00
22657;BME280;11495;55.610;12.100;2022-08-30T03:23:28;102166.22;;;10.80;0.00
22657;BME280;11495;55.610;12.100;2022-08-30T03:25:53;102164.75;;;10.89;0.00
22657;BME280;11495;55.610;12.100;2022-08-30T03:28:19;102156.25;;;10.91;0.00
22657;BME280;11495;55.610;12.100;2022-08-30T03:30:45;102155.28;;;10.97;0.00
22657;BME280;11495;55.610;12.100;2022-08-30T03:33:15;102148.63;;;10.93;0.00
22657;BME280;11495;55.610;12.100;2022-08-30T03:35:40;102144.34;;;10.85;0.00
22657;BME280;11495;55.610;12.100;2022-08-30T03:38:06;102134.16;;;10.86;0.00
22657;BME280;11495;55.610;12.100;2022-08-30T03:40:31;102134.16;;;10.86;0.00
22657;BME280;11495;55.610;12.100;2022-08-30T03:42:57;102127.81;;;10.85;0.00
22657;BME280;11495;55.610;12.100;2022-08-30T03:45:23;102120.66;;;10.84;0.00
22657;BME280;11495;55.610;12.100;2022-08-30T03:47:48;102110.53;;;10.90;0.00
22657;BME280;11495;55.610;12.100;2022-08-30T03:50:14;102113.56;;;10.88;0.00
22657;BME280;11495;55.610;12.100;2022-08-30T03:52:40;102118.88;;;10.78;0.00
22657;BME280;11495;55.610;12.100;2022-08-30T03:55:06;102116.12;;;10.78;0.00
22657;BME280;11495;55.610;12.100;2022-08-30T03:57:32;102113.31;;;10.90;0.00
22657;BME280;11495;55.610;12.100;2022-08-30T03:59:57;102105.28;;;10.88;0.00
22657;BME280;11495;55.610;12.100;2022-08-30T04:02:23;102116.81;;;10.85;0.00
22657;BME280;11495;55.610;12.100;2022-08-30T04:04:48;102112.84;;;10.81;0.00
22657;BME280;11495;55.610;12.100;2022-08-30T04:07:14;102102.00;;;10.75;0.00
22657;BME280;11495;55.610;12.100;2022-08-30T04:09:39;102109.31;;;10.69;0.00
22657;BME280;11495;55.610;12.100;2022-08-30T04:12:06;102108.25;;;10.58;0.00
22657;BME280;11495;55.610;12.100;2022-08-30T04:14:34;102108.44;;;10.52;0.00
22657;BME280;11495;55.610;12.100;2022-08-30T04:17:03;102112.84;;;10.41;0.00
22657;BME280;11495;55.610;12.100;2022-08-30T04:19:30;102113.97;;;10.28;0.00
22657;BME280;11495;55.610;12.100;2022-08-30T04:21:57;102123.84;;;10.18;0.00
22657;BME280;11495;55.610;12.100;2022-08-30T04:24:23;102130.22;;;10.06;0.00
22657;BME280;11495;55.610;12.100;2022-08-30T04:26:48;102130.94;;;10.02;0.00
22657;BME280;11495;55.610;12.100;2022-08-30T04:29:14;102129.03;;;10.02;0.00
22657;BME280;11495;55.610;12.100;2022-08-30T04:31:42;102130.22;;;10.06;0.00
22657;BME280;11495;55.610;12.100;2022-08-30T04:34:12;102129.97;;;10.08;0.00
22657;BME280;11495;55.610;12.100;2022-08-30T04:36:38;102127.59;;;10.23;0.00
22657;BME280;11495;55.610;12.100;2022-08-30T04:39:04;102130.72;;;10.27;0.00
22657;BME280;11495;55.610;12.100;2022-08-30T04:41:29;102128.81;;;10.27;0.00
22657;BME280;11495;55.610;12.100;2022-08-30T04:43:54;102123.31;;;10.27;0.00
22657;BME280;11495;55.610;12.100;2022-08-30T04:46:20;102121.47;;;10.33;0.00
22657;BME280;11495;55.610;12.100;2022-08-30T04:48:45;102120.41;;;10.34;0.00
22657;BME280;11495;55.610;12.100;2022-08-30T04:51:14;102117.97;;;10.49;0.00
22657;BME280;11495;55.610;12.100;2022-08-30T04:53:41;102116.38;;;10.77;0.00
22657;BME280;11495;55.610;12.100;2022-08-30T04:56:08;102098.13;;;10.87;0.00
22657;BME280;11495;55.610;12.100;2022-08-30T04:58:34;102093.59;;;11.10;0.00
22657;BME280;11495;55.610;12.100;2022-08-30T05:01:00;102089.69;;;11.39;0.00
22657;BME280;11495;55.610;12.100;2022-08-30T05:03:25;102091.44;;;11.62;0.00
22657;BME280;11495;55.610;12.100;2022-08-30T05:05:51;102093.12;;;11.80;0.00
22657;BME280;11495;55.610;12.100;2022-08-30T05:08:19;102104.09;;;11.92;0.00
22657;BME280;11495;55.610;12.100;2022-08-30T05:10:47;102127.69;;;12.04;0.00
22657;BME280;11495;55.610;12.100;2022-08-30T05:13:14;102140.53;;;12.16;0.00
22657;BME280;11495;55.610;12.100;2022-08-30T05:15:40;102165.44;;;12.21;0.00
22657;BME280;11495;55.610;12.100;2022-08-30T05:18:07;102196.19;;;12.29;0.00
22657;BME280;11495;55.610;12.100;2022-08-30T05:20:34;102230.97;;;12.30;0.00
22657;BME280;11495;55.610;12.100;2022-08-30T05:23:00;102267.66;;;12.31;0.00
22657;BME280;11495;55.610;12.100;2022-08-30T05:25:32;102289.81;;;12.36;0.00
22657;BME280;11495;55.610;12.100;2022-08-30T05:27:58;102320.06;;;12.31;0.00
22657;BME280;11495;55.610;12.100;2022-08-30T05:30:25;102350.16;;;12.32;0.00
22657;BME280;11495;55.610;12.100;2022-08-30T05:32:52;102371.66;;;12.30;0.00
22657;BME280;11495;55.610;12.100;2022-08-30T05:35:19;102396.84;;;12.34;0.00
22657;BME280;11495;55.610;12.100;2022-08-30T05:37:45;102409.41;;;12.42;0.00
22657;BME280;11495;55.610;12.100;2022-08-30T05:40:12;102420.94;;;12.55;0.00
22657;BME280;11495;55.610;12.100;2022-08-30T05:42:38;102442.03;;;12.61;0.00
22657;BME280;11495;55.610;12.100;2022-08-30T05:45:07;102469.50;;;12.68;0.00
22657;BME280;11495;55.610;12.100;2022-08-30T05:47:32;102484.19;;;12.74;0.00
22657;BME280;11495;55.610;12.100;2022-08-30T05:49:58;102508.31;;;12.78;0.00
22657;BME280;11495;55.610;12.100;2022-08-30T05:52:23;102515.00;;;12.82;0.00
22657;BME280;11495;55.610;12.100;2022-08-30T05:54:54;102541.56;;;12.83;0.00
22657;BME280;11495;55.610;12.100;2022-08-30T05:57:20;102557.38;;;12.88;0.00
22657;BME280;11495;55.610;12.100;2022-08-30T05:59:46;102569.00;;;12.90;0.00
22657;BME280;11495;55.610;12.100;2022-08-30T06:02:11;102580.97;;;12.96;0.00
22657;BME280;11495;55.610;12.100;2022-08-30T06:04:36;102587.53;;;13.06;0.00
22657;BME280;11495;55.610;12.100;2022-08-30T06:07:02;102603.31;;;13.23;0.00
22657;BME280;11495;55.610;12.100;2022-08-30T06:09:28;102613.37;;;13.45;0.00
22657;BME280;11495;55.610;12.100;2022-08-30T06:11:53;102619.50;;;13.64;0.00
22657;BME280;11495;55.610;12.100;2022-08-30T06:14:19;102625.09;;;13.86;0.00
22657;BME280;11495;55.610;12.100;2022-08-30T06:16:44;102652.00;;;14.08;0.00
22657;BME280;11495;55.610;12.100;2022-08-30T06:19:11;102674.44;;;14.28;0.00
22657;BME280;11495;55.610;12.100;2022-08-30T06:21:38;102717.44;;;14.36;0.00
22657;BME280;11495;55.610;12.100;2022-08-30T06:24:06;102764.22;;;14.49;0.00
22657;BME280;11495;55.610;12.100;2022-08-30T06:26:36;102795.47;;;14.66;0.00
22657;BME280;11495;55.610;12.100;2022-08-30T06:29:02;102844.91;;;14.74;0.00
22657;BME280;11495;55.610;12.100;2022-08-30T06:31:27;102883.31;;;14.87;0.00
22657;BME280;11495;55.610;12.100;2022-08-30T06:33:53;102912.59;;;15.17;0.00
22657;BME280;11495;55.610;12.100;2022-08-30T06:36:22;102947.50;;;15.35;0.00
22657;BME280;11495;55.610;12.100;2022-08-30T06:38:55;102984.03;;;15.49;0.00
22657;BME280;11495;55.610;12.100;2022-08-30T06:41:25;103017.38;;;15.70;0.00
22657;BME280;11495;55.610;12.100;2022-08-30T06:43:51;103057.19;;;15.98;0.00
22657;BME280;11495;55.610;12.100;2022-08-30T06:46:20;103074.09;;;16.40;0.00
22657;BME280;11495;55.610;12.100;2022-08-30T06:48:46;103135.34;;;16.50;0.00
22657;BME280;11495;55.610;12.100;2022-08-30T06:51:12;103168.75;;;16.55;0.00
22657;BME280;11495;55.610;12.100;2022-08-30T06:53:38;103203.16;;;16.54;0.00
22657;BME280;11495;55.610;12.100;2022-08-30T06:56:07;103198.44;;;16.72;0.00
22657;BME280;11495;55.610;12.100;2022-08-30T06:58:34;103234.59;;;16.72;0.00
22657;BME280;11495;55.610;12.100;2022-08-30T07:01:00;103245.09;;;16.70;0.00
22657;BME280;11495;55.610;12.100;2022-08-30T07:03:26;103259.00;;;16.70;0.00
22657;BME280;11495;55.610;12.100;2022-08-30T07:05:52;103257.78;;;16.82;0.00
22657;BME280;11495;55.610;12.100;2022-08-30T07:08:17;103252.19;;;17.04;0.00
22657;BME280;11495;55.610;12.100;2022-08-30T07:10:43;103244.94;;;17.25;0.00
22657;BME280;11495;55.610;12.100;2022-08-30T07:13:09;103264.88;;;17.39;0.00
22657;BME280;11495;55.610;12.100;2022-08-30T07:15:35;103263.78;;;17.45;0.00
22657;BME280;11495;55.610;12.100;2022-08-30T07:18:01;103271.19;;;17.61;0.00
22657;BME280;11495;55.610;12.100;2022-08-30T07:20:45;103274.03;;;17.66;0.00
22657;BME280;11495;55.610;12.100;2022-08-30T07:23:10;103235.66;;;17.68;0.00
22657;BME280;11495;55.610;12.100;2022-08-30T07:25:38;103134.06;;;18.08;0.00
22657;BME280;11495;55.610;12.100;2022-08-30T07:28:07;102973.72;;;18.33;0.00
22657;BME280;11495;55.610;12.100;2022-08-30T07:30:34;102766.16;;;18.10;0.00
22657;BME280;11495;55.610;12.100;2022-08-30T07:32:59;102773.94;;;18.48;0.00
22657;BME280;11495;55.610;12.100;2022-08-30T07:35:25;102534.97;;;18.79;0.00
22657;BME280;11495;55.610;12.100;2022-08-30T07:37:50;101898.91;;;18.72;0.00
22657;BME280;11495;55.610;12.100;2022-08-30T07:40:15;101748.28;;;18.64;0.00
22657;BME280;11495;55.610;12.100;2022-08-30T07:42:41;101750.69;;;18.70;0.00
22657;BME280;11495;55.610;12.100;2022-08-30T07:45:08;101788.56;;;18.52;0.00
22657;BME280;11495;55.610;12.100;2022-08-30T07:47:33;101800.00;;;18.70;0.00
22657;BME280;11495;55.610;12.100;2022-08-30T07:49:59;101815.75;;;18.93;0.00
22657;BME280;11495;55.610;12.100;2022-08-30T07:52:25;101829.72;;;19.07;0.00
22657;BME280;11495;55.610;12.100;2022-08-30T07:54:53;101847.94;;;18.86;0.00
22657;BME280;11495;55.610;12.100;2022-08-30T07:57:19;101836.63;;;18.96;0.00
22657;BME280;11495;55.610;12.100;2022-08-30T07:59:44;101838.31;;;19.38;0.00
22657;BME280;11495;55.610;12.100;2022-08-30T08:02:09;101937.09;;;19.51;0.00
22657;BME280;11495;55.610;12.100;2022-08-30T08:04:35;102071.69;;;19.80;0.00
22657;BME280;11495;55.610;12.100;2022-08-30T08:07:00;102187.62;;;19.59;0.00
22657;BME280;11495;55.610;12.100;2022-08-30T08:09:26;102181.75;;;18.99;0.00
22657;BME280;11495;55.610;12.100;2022-08-30T08:11:51;102160.06;;;18.96;0.00
22657;BME280;11495;55.610;12.100;2022-08-30T08:14:17;102141.38;;;19.15;0.00
22657;BME280;11495;55.610;12.100;2022-08-30T08:16:42;102117.41;;;19.14;0.00
22657;BME280;11495;55.610;12.100;2022-08-30T08:19:09;102101.13;;;19.21;0.00
22657;BME280;11495;55.610;12.100;2022-08-30T08:21:35;102082.56;;;19.30;0.00
22657;BME280;11495;55.610;12.100;2022-08-30T08:24:01;102089.81;;;19.31;0.00
22657;BME280;11495;55.610;12.100;2022-08-30T08:26:27;102083.09;;;19.32;0.00
22657;BME280;11495;55.610;12.100;2022-08-30T08:28:52;102081.31;;;19.55;0.00
22657;BME280;11495;55.610;12.100;2022-08-30T08:31:23;102082.38;;;19.59;0.00
22657;BME280;11495;55.610;12.100;2022-08-30T08:33:49;102100.28;;;19.40;0.00
22657;BME280;11495;55.610;12.100;2022-08-30T08:36:14;102078.38;;;19.66;0.00
22657;BME280;11495;55.610;12.100;2022-08-30T08:38:40;102082.69;;;20.04;0.00
22657;BME280;11495;55.610;12.100;2022-08-30T08:41:35;102087.37;;;20.50;0.00
22657;BME280;11495;55.610;12.100;2022-08-30T08:44:15;102107.44;;;20.11;0.00
22657;BME280;11495;55.610;12.100;2022-08-30T08:46:55;102091.50;;;20.25;0.00
22657;BME280;11495;55.610;12.100;2022-08-30T08:49:27;102093.88;;;20.59;0.00
22657;BME280;11495;55.610;12.100;2022-08-30T08:51:53;102100.72;;;20.67;0.00
22657;BME280;11495;55.610;12.100;2022-08-30T08:54:53;102089.19;;;21.18;0.00
22657;BME280;11495;55.610;12.100;2022-08-30T08:57:23;102102.25;;;21.23;0.00
22657;BME280;11495;55.610;12.100;2022-08-30T08:59:49;102104.78;;;20.61;0.00
22657;BME280;11495;55.610;12.100;2022-08-30T09:05:06;102116.56;;;20.30;0.00
22657;BME280;11495;55.610;12.100;2022-08-30T09:07:36;102118.50;;;20.16;0.00
22657;BME280;11495;55.610;12.100;2022-08-30T09:10:03;102123.47;;;20.05;0.00
22657;BME280;11495;55.610;12.100;2022-08-30T09:12:29;102110.56;;;20.51;0.00
22657;BME280;11495;55.610;12.100;2022-08-30T09:15:26;102110.75;;;20.40;0.00
22657;BME280;11495;55.610;12.100;2022-08-30T09:18:02;102115.66;;;20.48;0.00
22657;BME280;11495;55.610;12.100;2022-08-30T09:20:34;102108.91;;;21.27;0.00
22657;BME280;11495;55.610;12.100;2022-08-30T09:23:20;102106.94;;;21.14;0.00
22657;BME280;11495;55.610;12.100;2022-08-30T09:28:23;102107.72;;;20.92;0.00
22657;BME280;11495;55.610;12.100;2022-08-30T09:31:18;102104.97;;;20.78;0.00
22657;BME280;11495;55.610;12.100;2022-08-30T09:33:55;102102.84;;;20.97;0.00
22657;BME280;11495;55.610;12.100;2022-08-30T09:36:27;102082.31;;;21.92;0.00
22657;BME280;11495;55.610;12.100;2022-08-30T09:39:00;102090.63;;;22.36;0.00
22657;BME280;11495;55.610;12.100;2022-08-30T09:41:37;102086.44;;;21.63;0.00
22657;BME280;11495;55.610;12.100;2022-08-30T09:44:14;102089.31;;;21.27;0.00
22657;BME280;11495;55.610;12.100;2022-08-30T09:46:52;102099.19;;;20.61;0.00
22657;BME280;11495;55.610;12.100;2022-08-30T09:49:33;102089.19;;;20.82;0.00
22657;BME280;11495;55.610;12.100;2022-08-30T09:52:36;102093.16;;;20.67;0.00
22657;BME280;11495;55.610;12.100;2022-08-30T09:55:15;102075.97;;;20.74;0.00
22657;BME280;11495;55.610;12.100;2022-08-30T10:00:27;102066.78;;;21.54;0.00
22657;BME280;11495;55.610;12.100;2022-08-30T10:14:26;102085.56;;;21.18;0.00
22657;BME280;11495;55.610;12.100;2022-08-30T10:22:25;102069.97;;;20.39;0.00
22657;BME280;11495;55.610;12.100;2022-08-30T10:25:02;102060.84;;;20.75;0.00
22657;BME280;11495;55.610;12.100;2022-08-30T10:27:53;102064.16;;;20.77;0.00
22657;BME280;11495;55.610;12.100;2022-08-30T10:30:20;102050.44;;;21.48;0.00
22657;BME280;11495;55.610;12.100;2022-08-30T10:32:57;102045.16;;;21.69;0.00
22657;BME280;11495;55.610;12.100;2022-08-30T10:35:32;102046.66;;;22.54;0.00
22657;BME280;11495;55.610;12.100;2022-08-30T10:40:46;102043.41;;;23.21;0.00
22657;BME280;11495;55.610;12.100;2022-08-30T10:43:56;102047.37;;;22.94;0.00
22657;BME280;11495;55.610;12.100;2022-08-30T10:48:54;102044.19;;;22.61;0.00
22657;BME280;11495;55.610;12.100;2022-08-30T10:51:31;102051.38;;;22.28;0.00
22657;BME280;11495;55.610;12.100;2022-08-30T10:54:15;102054.22;;;22.05;0.00
22657;BME280;11495;55.610;12.100;2022-08-30T10:56:44;102066.53;;;21.65;0.00
22657;BME280;11495;55.610;12.100;2022-08-30T10:59:12;102066.63;;;21.82;0.00
22657;BME280;11495;55.610;12.100;2022-08-30T11:02:17;102070.47;;;21.64;0.00
22657;BME280;11495;55.610;12.100;2022-08-30T11:07:46;102055.03;;;21.75;0.00
22657;BME280;11495;55.610;12.100;2022-08-30T11:10:36;102056.47;;;21.95;0.00
22657;BME280;11495;55.610;12.100;2022-08-30T11:13:15;102042.97;;;22.36;0.00
22657;BME280;11495;55.610;12.100;2022-08-30T11:16:04;102044.72;;;22.98;0.00
22657;BME280;11495;55.610;12.100;2022-08-30T11:18:49;102043.03;;;22.71;0.00
22657;BME280;11495;55.610;12.100;2022-08-30T11:21:39;102043.31;;;22.04;0.00
22657;BME280;11495;55.610;12.100;2022-08-30T11:31:52;102026.00;;;22.59;0.00
22657;BME280;11495;55.610;12.100;2022-08-30T11:39:57;102032.50;;;22.68;0.00
22657;BME280;11495;55.610;12.100;2022-08-30T11:48:06;102018.75;;;22.58;0.00
22657;BME280;11495;55.610;12.100;2022-08-30T11:50:57;102020.31;;;22.90;0.00
22657;BME280;11495;55.610;12.100;2022-08-30T11:53:48;102022.44;;;23.36;0.00
22657;BME280;11495;55.610;12.100;2022-08-30T11:56:33;102015.69;;;23.93;0.00
22657;BME280;11495;55.610;12.100;2022-08-30T12:01:52;102027.72;;;21.80;0.00
22657;BME280;11495;55.610;12.100;2022-08-30T12:14:40;102025.16;;;22.32;0.00
22657;BME280;11495;55.610;12.100;2022-08-30T12:20:27;102028.19;;;22.79;0.00
22657;BME280;11495;55.610;12.100;2022-08-30T12:22:54;102039.53;;;21.69;0.00
22657;BME280;11495;55.610;12.100;2022-08-30T12:25:26;102033.81;;;21.82;0.00
22657;BME280;11495;55.610;12.100;2022-08-30T12:28:11;102032.91;;;21.65;0.00
22657;BME280;11495;55.610;12.100;2022-08-30T12:30:37;102031.62;;;21.26;0.00
22657;BME280;11495;55.610;12.100;2022-08-30T12:33:05;102030.63;;;21.36;0.00
22657;BME280;11495;55.610;12.100;2022-08-30T12:35:33;102035.19;;;21.31;0.00
22657;BME280;11495;55.610;12.100;2022-08-30T12:38:05;102030.91;;;21.34;0.00
22657;BME280;11495;55.610;12.100;2022-08-30T12:40:32;102036.84;;;20.96;0.00
22657;BME280;11495;55.610;12.100;2022-08-30T12:43:23;102032.44;;;20.82;0.00
22657;BME280;11495;55.610;12.100;2022-08-30T12:45:50;102043.78;;;20.63;0.00
22657;BME280;11495;55.610;12.100;2022-08-30T12:48:17;102014.00;;;20.81;0.00
22657;BME280;11495;55.610;12.100;2022-08-30T12:50:45;102009.72;;;20.61;0.00
22657;BME280;11495;55.610;12.100;2022-08-30T12:53:27;102036.66;;;20.57;0.00
22657;BME280;11495;55.610;12.100;2022-08-30T12:56:14;102030.41;;;20.73;0.00
22657;BME280;11495;55.610;12.100;2022-08-30T12:58:47;102015.66;;;20.82;0.00
22657;BME280;11495;55.610;12.100;2022-08-30T13:01:27;102028.62;;;20.78;0.00
22657;BME280;11495;55.610;12.100;2022-08-30T13:04:26;102027.81;;;20.77;0.00
22657;BME280;11495;55.610;12.100;2022-08-30T13:06:54;102015.22;;;20.88;0.00
22657;BME280;11495;55.610;12.100;2022-08-30T13:09:34;102017.78;;;21.21;0.00
22657;BME280;11495;55.610;12.100;2022-08-30T13:12:02;102026.37;;;20.66;0.00
22657;BME280;11495;55.610;12.100;2022-08-30T13:19:43;102008.00;;;20.87;0.00
22657;BME280;11495;55.610;12.100;2022-08-30T13:24:55;101996.37;;;20.94;0.00
22657;BME280;11495;55.610;12.100;2022-08-30T13:27:21;101996.03;;;20.59;0.00
22657;BME280;11495;55.610;12.100;2022-08-30T13:29:47;102004.75;;;20.58;0.00
22657;BME280;11495;55.610;12.100;2022-08-30T13:32:12;101987.56;;;20.51;0.00
22657;BME280;11495;55.610;12.100;2022-08-30T13:34:39;101997.31;;;20.39;0.00
22657;BME280;11495;55.610;12.100;2022-08-30T13:37:06;101990.09;;;20.25;0.00
22657;BME280;11495;55.610;12.100;2022-08-30T13:39:34;101991.50;;;20.50;0.00
22657;BME280;11495;55.610;12.100;2022-08-30T13:41:59;101982.09;;;20.82;0.00
22657;BME280;11495;55.610;12.100;2022-08-30T13:44:24;101979.63;;;20.80;0.00
22657;BME280;11495;55.610;12.100;2022-08-30T13:46:52;101984.78;;;20.51;0.00
22657;BME280;11495;55.610;12.100;2022-08-30T13:49:30;101987.56;;;20.51;0.00
22657;BME280;11495;55.610;12.100;2022-08-30T13:51:55;101970.19;;;20.40;0.00
22657;BME280;11495;55.610;12.100;2022-08-30T13:54:21;101974.41;;;20.65;0.00
22657;BME280;11495;55.610;12.100;2022-08-30T13:56:48;101968.38;;;20.71;0.00
22657;BME280;11495;55.610;12.100;2022-08-30T13:59:14;101970.50;;;20.52;0.00
22657;BME280;11495;55.610;12.100;2022-08-30T14:01:40;101961.81;;;20.54;0.00
22657;BME280;11495;55.610;12.100;2022-08-30T14:04:05;101962.00;;;20.57;0.00
22657;BME280;11495;55.610;12.100;2022-08-30T14:06:31;101963.97;;;20.57;0.00
22657;BME280;11495;55.610;12.100;2022-08-30T14:08:56;101976.41;;;20.37;0.00
22657;BME280;11495;55.610;12.100;2022-08-30T14:11:21;101979.91;;;20.42;0.00
22657;BME280;11495;55.610;12.100;2022-08-30T14:13:47;101976.28;;;20.56;0.00
22657;BME280;11495;55.610;12.100;2022-08-30T14:16:13;101979.81;;;20.47;0.00
22657;BME280;11495;55.610;12.100;2022-08-30T14:18:38;101977.25;;;20.10;0.00
22657;BME280;11495;55.610;12.100;2022-08-30T14:21:03;101979.50;;;20.35;0.00
22657;BME280;11495;55.610;12.100;2022-08-30T14:23:29;101985.94;;;20.08;0.00